Aérodrome :
LOGIN :

S'inscrire | Disclaimer

   EN    FR    IT 

 










Légende :    VFR   VFR Marginal   IFR   IFR Intensif   IFR Très Intensif
Visi : 
Plafond : 
>= 8 km
>= 3000ft
5 à 8 km
1000 à 3000 ft
1500m à 5 km
500 à 1000 ft
800 à 1500m
200 à 500 ft
< 800m
< 200 ft
Symboles :   Orages  Brouillard  Fortes neiges  Fortes précipitations  Vent > 20 kt
SIGMETs :   Divers  Orages  Givrage  Turbulence  Onde Orograph.  Cendres Volcan.







- Altitude de l'aérodrome : 989 ft
- Code IATA : TRN


LIMF - Torino Caselle

DERNIER METAR :
  • 242020Z 27004KT CAVOK 21/15 Q1016

METARs EXPIRÉS :
  • 241950Z 27004KT 9999 FEW100 21/15 Q1016
  • 241920Z 21007KT 9999 SCT100 21/15 Q1016
  • 241850Z 19006KT 9999 BKN100 22/15 Q1016
  • 241820Z 28003KT 250V310 9999 BKN100 23/13 Q1016
  • 241750Z VRB01KT 9999 SCT042 SCT090 24/13 Q1016

TAF TAF LIMF
Valide du 24 à 18h jusqu'au 25 à 18h UTC


241700Z 2418/2518 VRB05KT 9999 SCT050
Pas de NOTAMs connus pour ce terrain.
1 SIGMET publié pour la FIR Milano (LIMM) :
 
Turbulence forte
LIMM SIGMET 2 VALID 241900/242200 LIIP
LIMM MILANO FIR SEV TURB FCST W OF LINE N4631 E00941 - N4315 E00901 FL250/330 MOV E NC=



MET'MAP, la Météo Aéronautique d'un coup d'oeil ! - Copyright ORBIFLY Décembre 2007 - Disclaimer

ORBIFLY MET'MAP TEAM :

Programmation & Développement : Alexandra Zaïnal
Conception & Développement : Baudouin d'Aumeries
Co-Programmation & Développement : Marc-Olivier Méhu
Soutien technique & logistique : Manuel Goepfert

Contact : metmap@orbifly.com




SOURCES & CREDITS :

   NOAA